createdAt,value
2017-01-16T00:00:06.008Z,0
2017-01-16T00:01:06.052Z,0
2017-01-16T00:02:06.101Z,0
2017-01-16T00:03:06.152Z,0
2017-01-16T00:04:06.212Z,0
2017-01-16T00:05:06.260Z,0
2017-01-16T00:06:06.322Z,0
2017-01-16T00:07:06.373Z,0
2017-01-16T00:08:06.433Z,0
2017-01-16T00:09:06.470Z,0
2017-01-16T00:10:06.542Z,0
2017-01-16T00:11:06.585Z,0
2017-01-16T00:12:06.640Z,0
2017-01-16T00:13:06.747Z,0
2017-01-16T00:14:06.755Z,0
2017-01-16T00:15:06.809Z,0
2017-01-16T00:16:06.855Z,0
2017-01-16T00:17:06.912Z,0
2017-01-16T00:18:06.969Z,0
2017-01-16T00:19:07.019Z,0
2017-01-16T00:20:07.082Z,0
2017-01-16T00:21:07.141Z,0
2017-01-16T00:22:07.189Z,0
2017-01-16T00:23:07.243Z,0
2017-01-16T00:24:07.303Z,0
2017-01-16T00:25:07.354Z,0
2017-01-16T00:26:07.397Z,0
2017-01-16T00:27:07.470Z,0
2017-01-16T00:28:07.519Z,0
2017-01-16T00:29:07.580Z,0
2017-01-16T00:30:07.622Z,0
2017-01-16T00:31:07.678Z,0
2017-01-16T00:32:07.741Z,0
2017-01-16T00:33:07.789Z,0
2017-01-16T00:34:07.847Z,0
2017-01-16T00:35:07.899Z,0
2017-01-16T00:36:08.334Z,0
2017-01-16T00:37:08.004Z,0
2017-01-16T00:38:08.066Z,0
2017-01-16T00:39:08.112Z,0
2017-01-16T00:40:08.176Z,0
2017-01-16T00:41:08.229Z,0
2017-01-16T00:42:08.278Z,0
2017-01-16T00:43:08.336Z,0
2017-01-16T00:44:08.389Z,0
2017-01-16T00:45:08.481Z,0
2017-01-16T00:46:08.501Z,0
2017-01-16T00:47:08.549Z,0
2017-01-16T00:48:08.611Z,0
2017-01-16T00:49:08.687Z,0
2017-01-16T00:50:08.722Z,0
2017-01-16T00:51:08.764Z,0
2017-01-16T00:52:08.828Z,0
2017-01-16T00:53:08.872Z,0
2017-01-16T00:54:08.927Z,0
2017-01-16T00:55:08.991Z,0
2017-01-16T00:56:09.045Z,0
2017-01-16T00:57:09.087Z,0
2017-01-16T00:58:09.169Z,0
2017-01-16T00:59:09.196Z,0
2017-01-16T01:00:09.255Z,0
2017-01-16T01:01:09.300Z,0
2017-01-16T01:02:09.359Z,0
2017-01-16T01:03:09.408Z,0
2017-01-16T01:04:09.462Z,0
2017-01-16T01:05:09.518Z,0
2017-01-16T01:06:09.571Z,0
2017-01-16T01:07:09.637Z,0
2017-01-16T01:08:09.679Z,0
2017-01-16T01:09:09.733Z,0
2017-01-16T01:10:09.787Z,0
2017-01-16T01:11:09.870Z,0
2017-01-16T01:12:09.894Z,0
2017-01-16T01:13:09.941Z,0
2017-01-16T01:14:10.010Z,0
2017-01-16T01:15:10.057Z,0
2017-01-16T01:16:10.106Z,0
2017-01-16T01:17:10.153Z,0
2017-01-16T01:18:10.214Z,0
2017-01-16T01:19:10.270Z,0
2017-01-16T01:20:10.326Z,0
2017-01-16T01:21:10.391Z,0
2017-01-16T01:22:10.819Z,0
2017-01-16T01:23:10.480Z,0
2017-01-16T01:24:10.539Z,0
2017-01-16T01:25:10.594Z,0
2017-01-16T01:26:10.652Z,0
2017-01-16T01:27:10.709Z,0
2017-01-16T01:28:10.765Z,0
2017-01-16T01:29:10.818Z,0
2017-01-16T01:30:10.858Z,0
2017-01-16T01:31:10.936Z,0
2017-01-16T01:32:10.980Z,0
2017-01-16T01:33:11.033Z,0
2017-01-16T01:34:11.086Z,0
2017-01-16T01:35:11.139Z,0
2017-01-16T01:36:11.198Z,0
2017-01-16T01:37:11.255Z,0
2017-01-16T01:38:11.696Z,0
2017-01-16T01:39:11.367Z,0
2017-01-16T01:40:11.420Z,0
2017-01-16T01:41:11.465Z,0
2017-01-16T01:42:11.529Z,0
2017-01-16T01:43:11.576Z,0
2017-01-16T01:44:11.641Z,0
2017-01-16T01:45:11.685Z,0
2017-01-16T01:46:11.739Z,0
2017-01-16T01:47:11.800Z,0
2017-01-16T01:48:11.845Z,0
2017-01-16T01:49:11.902Z,0
2017-01-16T01:50:11.967Z,0
2017-01-16T01:51:12.023Z,0
2017-01-16T01:52:12.072Z,0
2017-01-16T01:53:12.120Z,0
2017-01-16T01:54:12.174Z,0
2017-01-16T01:55:12.228Z,0
2017-01-16T01:56:12.287Z,0
2017-01-16T01:57:12.333Z,0
2017-01-16T01:58:12.396Z,0
2017-01-16T01:59:12.448Z,0
2017-01-16T02:00:12.496Z,0
2017-01-16T02:01:12.559Z,0
2017-01-16T02:02:12.615Z,0
2017-01-16T02:03:12.658Z,0
2017-01-16T02:04:12.718Z,0
2017-01-16T02:05:12.786Z,0
2017-01-16T02:06:12.830Z,0
2017-01-16T02:07:12.886Z,0
2017-01-16T02:08:12.941Z,0
2017-01-16T02:09:12.995Z,0
2017-01-16T02:10:13.050Z,0
2017-01-16T02:11:13.102Z,0
2017-01-16T02:12:13.151Z,0
2017-01-16T02:13:13.200Z,0
2017-01-16T02:14:13.265Z,0
2017-01-16T02:15:13.318Z,0
2017-01-16T02:16:13.377Z,0
2017-01-16T02:17:13.416Z,0
2017-01-16T02:18:13.481Z,0
2017-01-16T02:19:13.527Z,0
2017-01-16T02:20:13.600Z,0
2017-01-16T02:21:13.650Z,0
2017-01-16T02:22:13.699Z,0
2017-01-16T02:23:13.747Z,0
2017-01-16T02:24:13.810Z,0
2017-01-16T02:25:13.858Z,0
2017-01-16T02:26:13.910Z,0
2017-01-16T02:27:13.959Z,0
2017-01-16T02:28:14.020Z,0
2017-01-16T02:29:14.079Z,0
2017-01-16T02:30:14.127Z,0
2017-01-16T02:31:14.176Z,0
2017-01-16T02:32:14.242Z,0
2017-01-16T02:33:14.288Z,0
2017-01-16T02:34:14.335Z,0
2017-01-16T02:35:14.399Z,0
2017-01-16T02:36:14.447Z,0
2017-01-16T02:37:14.504Z,0
2017-01-16T02:38:14.589Z,0
2017-01-16T02:39:14.626Z,0
2017-01-16T02:40:14.673Z,0
2017-01-16T02:41:14.731Z,0
2017-01-16T02:42:14.776Z,0
2017-01-16T02:43:14.842Z,0
2017-01-16T02:44:14.885Z,0
2017-01-16T02:45:14.941Z,0
2017-01-16T02:46:14.991Z,0
2017-01-16T02:47:15.083Z,0
2017-01-16T02:48:15.106Z,0
2017-01-16T02:49:15.161Z,0
2017-01-16T02:50:15.211Z,0
2017-01-16T02:51:15.286Z,0
2017-01-16T02:52:15.328Z,0
2017-01-16T02:53:15.473Z,0
2017-01-16T02:54:15.425Z,0
2017-01-16T02:55:15.475Z,0
2017-01-16T02:56:15.542Z,0
2017-01-16T02:57:15.581Z,0
2017-01-16T02:58:15.651Z,0
2017-01-16T02:59:15.690Z,0
2017-01-16T03:00:15.753Z,0
2017-01-16T03:01:15.800Z,0
2017-01-16T03:02:15.858Z,0
2017-01-16T03:03:15.917Z,0
2017-01-16T03:04:15.960Z,0
2017-01-16T03:05:16.024Z,0
2017-01-16T03:06:16.074Z,0
2017-01-16T03:07:16.123Z,0
2017-01-16T03:08:16.186Z,0
2017-01-16T03:09:16.237Z,0
2017-01-16T03:10:16.283Z,0
2017-01-16T03:11:16.351Z,0
2017-01-16T03:12:16.406Z,0
2017-01-16T03:13:16.461Z,0
2017-01-16T03:14:16.503Z,0
2017-01-16T03:15:16.561Z,0
2017-01-16T03:16:16.628Z,0
2017-01-16T03:17:16.668Z,0
2017-01-16T03:18:16.721Z,0
2017-01-16T03:19:16.784Z,0
2017-01-16T03:20:16.839Z,0
2017-01-16T03:21:16.880Z,0
2017-01-16T03:22:16.934Z,0
2017-01-16T03:23:16.995Z,0
2017-01-16T03:24:17.052Z,0
2017-01-16T03:25:17.101Z,0
2017-01-16T03:26:17.158Z,0
2017-01-16T03:27:17.213Z,0
2017-01-16T03:28:17.263Z,0
2017-01-16T03:29:17.315Z,0
2017-01-16T03:30:17.375Z,0
2017-01-16T03:31:17.425Z,0
2017-01-16T03:32:17.475Z,0
2017-01-16T03:33:17.535Z,0
2017-01-16T03:34:17.587Z,0
2017-01-16T03:35:17.644Z,0
2017-01-16T03:36:17.702Z,0
2017-01-16T03:37:17.754Z,0
2017-01-16T03:38:17.809Z,0
2017-01-16T03:39:17.872Z,0
2017-01-16T03:40:17.915Z,0
2017-01-16T03:41:17.961Z,0
2017-01-16T03:42:18.020Z,0
2017-01-16T03:43:18.068Z,0
2017-01-16T03:44:18.133Z,0
2017-01-16T03:45:18.187Z,0
2017-01-16T03:46:18.239Z,0
2017-01-16T03:47:18.286Z,0
2017-01-16T03:48:18.349Z,0
2017-01-16T03:49:18.408Z,0
2017-01-16T03:50:18.449Z,0
2017-01-16T03:51:18.516Z,0
2017-01-16T03:52:18.559Z,0
2017-01-16T03:53:18.616Z,0
2017-01-16T03:54:18.678Z,0
2017-01-16T03:55:18.724Z,0
2017-01-16T03:56:18.777Z,0
2017-01-16T03:57:18.833Z,0
2017-01-16T03:58:18.894Z,0
2017-01-16T03:59:18.940Z,0
2017-01-16T04:00:19.022Z,0
2017-01-16T04:01:19.050Z,0
2017-01-16T04:02:19.106Z,0
2017-01-16T04:03:19.161Z,0
2017-01-16T04:04:19.207Z,0
2017-01-16T04:05:19.256Z,0
2017-01-16T04:06:19.319Z,0
2017-01-16T04:07:19.375Z,0
2017-01-16T04:08:19.425Z,0
2017-01-16T04:09:19.481Z,0
2017-01-16T04:10:19.537Z,0
2017-01-16T04:11:19.594Z,0
2017-01-16T04:12:19.644Z,0
2017-01-16T04:13:19.701Z,0
2017-01-16T04:14:19.749Z,0
2017-01-16T04:15:19.802Z,0
2017-01-16T04:16:19.864Z,0
2017-01-16T04:17:19.904Z,0
2017-01-16T04:18:19.961Z,0
2017-01-16T04:19:20.024Z,0
2017-01-16T04:20:20.067Z,0
2017-01-16T04:21:20.125Z,0
2017-01-16T04:22:20.189Z,0
2017-01-16T04:23:20.226Z,0
2017-01-16T04:24:20.287Z,0
2017-01-16T04:25:20.347Z,0
2017-01-16T04:26:20.392Z,0
2017-01-16T04:27:20.452Z,0
2017-01-16T04:28:20.494Z,0
2017-01-16T04:29:20.557Z,0
2017-01-16T04:30:20.615Z,0
2017-01-16T04:31:20.655Z,0
2017-01-16T04:32:20.715Z,0
2017-01-16T04:33:20.769Z,0
2017-01-16T04:34:20.824Z,0
2017-01-16T04:35:20.870Z,0
2017-01-16T04:36:20.938Z,0
2017-01-16T04:37:20.982Z,0
2017-01-16T04:38:21.040Z,0
2017-01-16T04:39:21.110Z,0
2017-01-16T04:40:21.141Z,0
2017-01-16T04:41:21.194Z,0
2017-01-16T04:42:21.242Z,0
2017-01-16T04:43:21.352Z,0
2017-01-16T04:44:21.352Z,0
2017-01-16T04:45:21.394Z,0
2017-01-16T04:46:21.449Z,0
2017-01-16T04:47:21.883Z,0
2017-01-16T04:48:21.571Z,0
2017-01-16T04:49:21.611Z,0
2017-01-16T04:50:21.666Z,0
2017-01-16T04:51:21.728Z,0
2017-01-16T04:52:21.779Z,0
2017-01-16T04:53:21.821Z,0
2017-01-16T04:54:21.885Z,0
2017-01-16T04:55:21.928Z,0
2017-01-16T04:56:21.992Z,0
2017-01-16T04:57:22.048Z,0
2017-01-16T04:58:22.084Z,0
2017-01-16T04:59:22.154Z,0
2017-01-16T05:00:22.214Z,0
2017-01-16T05:01:22.257Z,0
2017-01-16T05:02:22.311Z,0
2017-01-16T05:03:22.355Z,0
2017-01-16T05:04:22.410Z,0
2017-01-16T05:05:22.466Z,0
2017-01-16T05:06:22.527Z,0
2017-01-16T05:07:22.576Z,0
2017-01-16T05:08:22.620Z,0
2017-01-16T05:09:22.681Z,0
2017-01-16T05:10:22.738Z,0
2017-01-16T05:11:22.787Z,0
2017-01-16T05:12:22.836Z,0
2017-01-16T05:13:22.885Z,0
2017-01-16T05:14:22.939Z,0
2017-01-16T05:15:22.999Z,0
2017-01-16T05:16:23.047Z,0
2017-01-16T05:17:23.111Z,0
2017-01-16T05:18:23.159Z,0
2017-01-16T05:19:23.597Z,0
2017-01-16T05:20:23.273Z,0
2017-01-16T05:21:23.321Z,0
2017-01-16T05:22:23.370Z,0
2017-01-16T05:23:23.451Z,0
2017-01-16T05:24:23.474Z,0
2017-01-16T05:25:23.539Z,0
2017-01-16T05:26:23.584Z,0
2017-01-16T05:27:23.636Z,0
2017-01-16T05:28:23.693Z,0
2017-01-16T05:29:23.889Z,0
2017-01-16T05:30:23.798Z,0
2017-01-16T05:31:23.848Z,0
2017-01-16T05:32:23.906Z,0
2017-01-16T05:33:23.950Z,0
2017-01-16T05:34:24.010Z,0
2017-01-16T05:35:24.062Z,0
2017-01-16T05:36:24.109Z,0
2017-01-16T05:37:24.165Z,0
2017-01-16T05:38:24.221Z,0
2017-01-16T05:39:24.285Z,0
2017-01-16T05:40:24.326Z,0
2017-01-16T05:41:24.381Z,0
2017-01-16T05:42:24.431Z,0
2017-01-16T05:43:24.492Z,0
2017-01-16T05:44:24.547Z,0
2017-01-16T05:45:24.599Z,0
2017-01-16T05:46:24.650Z,0
2017-01-16T05:47:24.694Z,0
2017-01-16T05:48:24.758Z,0
2017-01-16T05:49:24.799Z,0
2017-01-16T05:50:24.862Z,0
2017-01-16T05:51:24.910Z,0
2017-01-16T05:52:24.964Z,0
2017-01-16T05:53:25.018Z,0
2017-01-16T05:54:25.077Z,0
2017-01-16T05:55:25.121Z,0
2017-01-16T05:56:25.180Z,0
2017-01-16T05:57:25.231Z,0
2017-01-16T05:58:25.295Z,0
2017-01-16T05:59:25.333Z,0
2017-01-16T06:00:25.384Z,0
2017-01-16T06:01:25.441Z,0
2017-01-16T06:02:25.497Z,0
2017-01-16T06:03:25.561Z,0
2017-01-16T06:04:25.612Z,0
2017-01-16T06:05:25.859Z,0
2017-01-16T06:06:25.717Z,0
2017-01-16T06:07:25.764Z,0
2017-01-16T06:08:25.816Z,0
2017-01-16T06:09:25.881Z,0
2017-01-16T06:10:25.925Z,0
2017-01-16T06:11:25.989Z,0
2017-01-16T06:12:26.028Z,0
2017-01-16T06:13:26.088Z,0
2017-01-16T06:14:26.144Z,0
2017-01-16T06:15:26.198Z,0
2017-01-16T06:16:26.244Z,0
2017-01-16T06:17:26.297Z,0
2017-01-16T06:18:26.361Z,0
2017-01-16T06:19:26.413Z,0
2017-01-16T06:20:26.460Z,0
2017-01-16T06:21:26.508Z,0
2017-01-16T06:22:26.572Z,0
2017-01-16T06:23:26.643Z,0
2017-01-16T06:24:26.675Z,0
2017-01-16T06:25:26.734Z,0
2017-01-16T06:26:26.783Z,0
2017-01-16T06:27:26.831Z,0
2017-01-16T06:28:27.099Z,0
2017-01-16T06:29:27.155Z,0
2017-01-16T06:30:27.209Z,0
2017-01-16T06:31:27.046Z,0
2017-01-16T06:32:27.109Z,0
2017-01-16T06:33:27.168Z,0
2017-01-16T06:34:27.205Z,0
2017-01-16T06:35:27.272Z,0
2017-01-16T06:36:27.327Z,0
2017-01-16T06:37:27.381Z,0
2017-01-16T06:38:27.420Z,0
2017-01-16T06:39:27.482Z,0
2017-01-16T06:40:27.540Z,0
2017-01-16T06:41:27.596Z,0
2017-01-16T06:42:27.649Z,0
2017-01-16T06:43:27.687Z,0
2017-01-16T06:44:27.748Z,0
2017-01-16T06:45:27.803Z,0
2017-01-16T06:46:27.860Z,4
2017-01-16T06:47:27.914Z,4
2017-01-16T06:48:27.965Z,4
2017-01-16T06:49:28.017Z,4
2017-01-16T06:50:28.073Z,4
2017-01-16T06:51:28.134Z,4
2017-01-16T06:52:28.179Z,4
2017-01-16T06:53:28.232Z,4
2017-01-16T06:54:28.479Z,4
2017-01-16T06:55:28.346Z,4
2017-01-16T06:56:28.400Z,8
2017-01-16T06:57:28.450Z,8
2017-01-16T06:58:28.502Z,4
2017-01-16T06:59:28.556Z,8
2017-01-16T07:00:28.616Z,8
2017-01-16T07:01:28.671Z,8
2017-01-16T07:02:28.724Z,12
2017-01-16T07:03:28.777Z,12
2017-01-16T07:04:28.828Z,12
2017-01-16T07:05:28.886Z,12
2017-01-16T07:06:29.139Z,12
2017-01-16T07:07:28.997Z,16
2017-01-16T07:08:29.041Z,16
2017-01-16T07:09:29.121Z,20
2017-01-16T07:10:29.163Z,24
2017-01-16T07:11:29.207Z,24
2017-01-16T07:12:29.262Z,24
2017-01-16T07:13:29.306Z,28
2017-01-16T07:14:29.384Z,28
2017-01-16T07:15:29.425Z,28
2017-01-16T07:16:29.478Z,28
2017-01-16T07:17:29.537Z,28
2017-01-16T07:18:29.589Z,32
2017-01-16T07:19:29.638Z,28
2017-01-16T07:20:29.898Z,32
2017-01-16T07:21:29.955Z,32
2017-01-16T07:22:29.799Z,40
2017-01-16T07:23:29.858Z,44
2017-01-16T07:24:29.911Z,48
2017-01-16T07:25:29.972Z,48
2017-01-16T07:26:30.218Z,52
2017-01-16T07:27:30.068Z,52
2017-01-16T07:28:30.125Z,48
2017-01-16T07:29:30.188Z,48
2017-01-16T07:30:30.229Z,48
2017-01-16T07:31:30.287Z,48
2017-01-16T07:32:30.346Z,48
2017-01-16T07:33:30.394Z,52
2017-01-16T07:34:30.451Z,56
2017-01-16T07:35:30.498Z,56
2017-01-16T07:36:30.549Z,64
2017-01-16T07:37:30.610Z,76
2017-01-16T07:38:30.666Z,84
2017-01-16T07:39:30.714Z,88
2017-01-16T07:40:30.769Z,100
2017-01-16T07:41:30.831Z,100
2017-01-16T07:42:30.884Z,104
2017-01-16T07:43:30.935Z,108
2017-01-16T07:44:31.016Z,120
2017-01-16T07:45:31.044Z,128
2017-01-16T07:46:31.305Z,132
2017-01-16T07:47:31.160Z,144
2017-01-16T07:48:31.204Z,152
2017-01-16T07:49:31.260Z,152
2017-01-16T07:50:31.313Z,148
2017-01-16T07:51:31.361Z,152
2017-01-16T07:52:31.410Z,148
2017-01-16T07:53:31.467Z,152
2017-01-16T07:54:31.529Z,160
2017-01-16T07:55:31.588Z,172
2017-01-16T07:56:31.637Z,240
2017-01-16T07:57:31.704Z,216
2017-01-16T07:58:31.751Z,220
2017-01-16T07:59:31.793Z,224
2017-01-16T08:00:31.848Z,260
2017-01-16T08:01:31.904Z,252
2017-01-16T08:02:31.955Z,212
2017-01-16T08:03:32.031Z,272
2017-01-16T08:04:32.070Z,236
2017-01-16T08:05:32.133Z,244
2017-01-16T08:06:32.177Z,312
2017-01-16T08:07:32.227Z,340
2017-01-16T08:08:32.292Z,352
2017-01-16T08:09:32.353Z,336
2017-01-16T08:10:32.393Z,360
2017-01-16T08:11:32.456Z,408
2017-01-16T08:12:32.704Z,440
2017-01-16T08:13:32.557Z,440
2017-01-16T08:14:32.619Z,436
2017-01-16T08:15:32.670Z,440
2017-01-16T08:16:32.725Z,444
2017-01-16T08:17:32.784Z,432
2017-01-16T08:18:32.840Z,416
2017-01-16T08:19:32.886Z,396
2017-01-16T08:20:32.940Z,356
2017-01-16T08:21:32.997Z,376
2017-01-16T08:22:33.053Z,372
2017-01-16T08:23:33.105Z,432
2017-01-16T08:24:33.153Z,388
2017-01-16T08:25:33.212Z,384
2017-01-16T08:26:33.270Z,452
2017-01-16T08:27:33.324Z,500
2017-01-16T08:28:33.381Z,524
2017-01-16T08:29:33.431Z,480
2017-01-16T08:30:33.476Z,460
2017-01-16T08:31:33.546Z,416
2017-01-16T08:32:33.598Z,484
2017-01-16T08:33:33.656Z,544
2017-01-16T08:34:33.712Z,532
2017-01-16T08:35:33.750Z,472
2017-01-16T08:36:33.807Z,484
2017-01-16T08:37:33.873Z,500
2017-01-16T08:38:34.125Z,520
2017-01-16T08:39:33.967Z,552
2017-01-16T08:40:34.037Z,544
2017-01-16T08:41:34.078Z,524
2017-01-16T08:42:34.143Z,536
2017-01-16T08:43:34.195Z,572
2017-01-16T08:44:34.242Z,616
2017-01-16T08:45:34.306Z,644
2017-01-16T08:46:34.360Z,624
2017-01-16T08:47:34.420Z,612
2017-01-16T08:48:34.457Z,604
2017-01-16T08:49:34.516Z,608
2017-01-16T08:50:34.571Z,620
2017-01-16T08:51:34.630Z,660
2017-01-16T08:52:34.690Z,680
2017-01-16T08:53:34.743Z,696
2017-01-16T08:54:34.789Z,720
2017-01-16T08:55:34.842Z,720
2017-01-16T08:56:34.915Z,744
2017-01-16T08:57:34.960Z,756
2017-01-16T08:58:35.013Z,724
2017-01-16T08:59:35.069Z,728
2017-01-16T09:00:35.129Z,724
2017-01-16T09:01:35.185Z,696
2017-01-16T09:02:35.225Z,676
2017-01-16T09:03:35.292Z,660
2017-01-16T09:04:35.340Z,652
2017-01-16T09:05:35.391Z,736
2017-01-16T09:06:35.450Z,740
2017-01-16T09:07:35.512Z,760
2017-01-16T09:08:35.566Z,788
2017-01-16T09:09:35.609Z,784
2017-01-16T09:10:35.676Z,776
2017-01-16T09:11:35.723Z,812
2017-01-16T09:12:35.787Z,832
2017-01-16T09:13:35.840Z,836
2017-01-16T09:14:35.885Z,836
2017-01-16T09:15:35.952Z,848
2017-01-16T09:16:36.000Z,844
2017-01-16T09:17:36.064Z,840
2017-01-16T09:18:36.119Z,868
2017-01-16T09:19:36.172Z,880
2017-01-16T09:20:36.226Z,876
2017-01-16T09:21:36.285Z,896
2017-01-16T09:22:36.344Z,904
2017-01-16T09:23:36.398Z,900
2017-01-16T09:24:36.462Z,908
2017-01-16T09:25:36.522Z,908
2017-01-16T09:26:36.569Z,916
2017-01-16T09:27:36.629Z,916
2017-01-16T09:28:36.686Z,920
2017-01-16T09:29:36.745Z,924
2017-01-16T09:30:36.789Z,948
2017-01-16T09:31:36.849Z,956
2017-01-16T09:32:36.915Z,944
2017-01-16T09:33:36.964Z,976
2017-01-16T09:34:37.020Z,972
2017-01-16T09:35:37.084Z,980
2017-01-16T09:36:37.142Z,952
2017-01-16T09:37:37.186Z,972
2017-01-16T09:38:37.247Z,976
2017-01-16T09:39:37.296Z,980
2017-01-16T09:40:37.355Z,880
2017-01-16T09:41:37.411Z,448
2017-01-16T09:42:37.464Z,864
2017-01-16T09:43:37.534Z,988
2017-01-16T09:44:37.578Z,880
2017-01-16T09:45:37.643Z,984
2017-01-16T09:46:37.698Z,976
2017-01-16T09:47:37.762Z,996
2017-01-16T09:48:37.817Z,1032
2017-01-16T09:49:37.871Z,1044
2017-01-16T09:50:37.933Z,1056
2017-01-16T09:51:37.984Z,1056
2017-01-16T09:52:38.041Z,1048
2017-01-16T09:53:38.105Z,892
2017-01-16T09:54:38.149Z,1084
2017-01-16T09:55:38.221Z,1084
2017-01-16T09:56:38.272Z,1092
2017-01-16T09:57:38.329Z,1116
2017-01-16T09:58:38.397Z,1144
2017-01-16T09:59:38.448Z,1128
2017-01-16T10:00:38.501Z,1132
2017-01-16T10:01:38.549Z,1164
2017-01-16T10:02:38.604Z,1204
2017-01-16T10:03:38.671Z,1232
2017-01-16T10:04:38.729Z,1320
2017-01-16T10:05:38.784Z,1404
2017-01-16T10:06:39.228Z,1488
2017-01-16T10:07:38.894Z,1596
2017-01-16T10:08:38.944Z,1632
2017-01-16T10:09:39.006Z,1496
2017-01-16T10:10:39.067Z,1616
2017-01-16T10:11:39.120Z,1604
2017-01-16T10:12:39.174Z,1452
2017-01-16T10:13:39.239Z,1248
2017-01-16T10:14:39.317Z,1496
2017-01-16T10:15:39.349Z,1404
2017-01-16T10:16:39.415Z,1464
2017-01-16T10:17:39.459Z,1220
2017-01-16T10:18:39.533Z,1360
2017-01-16T10:19:39.580Z,1316
2017-01-16T10:20:39.657Z,1332
2017-01-16T10:21:39.691Z,1476
2017-01-16T10:22:39.752Z,1596
2017-01-16T10:23:39.820Z,1348
2017-01-16T10:24:39.871Z,1392
2017-01-16T10:25:39.907Z,1048
2017-01-16T10:26:39.966Z,1228
2017-01-16T10:27:40.033Z,1556
2017-01-16T10:28:40.092Z,1620
2017-01-16T10:29:40.150Z,1620
2017-01-16T10:30:40.202Z,1024
2017-01-16T10:31:40.249Z,988
2017-01-16T10:32:40.314Z,1316
2017-01-16T10:33:40.367Z,1560
2017-01-16T10:34:40.419Z,1572
2017-01-16T10:35:40.480Z,1540
2017-01-16T10:36:40.546Z,1100
2017-01-16T10:37:40.605Z,904
2017-01-16T10:38:40.672Z,1020
2017-01-16T10:39:40.715Z,1304
2017-01-16T10:40:40.768Z,1544
2017-01-16T10:41:40.820Z,1292
2017-01-16T10:42:40.878Z,1784
2017-01-16T10:43:40.932Z,1780
2017-01-16T10:44:40.998Z,1232
2017-01-16T10:45:41.057Z,916
2017-01-16T10:46:41.099Z,880
2017-01-16T10:47:41.156Z,972
2017-01-16T10:48:41.212Z,1048
2017-01-16T10:49:41.277Z,1616
2017-01-16T10:50:41.346Z,1088
2017-01-16T10:51:41.395Z,1172
2017-01-16T10:52:41.438Z,1532
2017-01-16T10:53:41.501Z,1484
2017-01-16T10:54:41.550Z,1092
2017-01-16T10:55:41.615Z,1944
2017-01-16T10:56:41.659Z,1800
2017-01-16T10:57:41.732Z,892
2017-01-16T10:58:41.788Z,1980
2017-01-16T10:59:41.834Z,1020
2017-01-16T11:00:41.889Z,1308
2017-01-16T11:01:41.955Z,1828
2017-01-16T11:02:42.006Z,936
2017-01-16T11:03:42.063Z,1012
2017-01-16T11:04:42.126Z,880
2017-01-16T11:05:42.183Z,804
2017-01-16T11:06:42.332Z,1064
2017-01-16T11:07:42.282Z,1144
2017-01-16T11:08:42.347Z,844
2017-01-16T11:09:42.397Z,1080
2017-01-16T11:10:42.459Z,1296
2017-01-16T11:11:42.513Z,1220
2017-01-16T11:12:42.570Z,920
2017-01-16T11:13:42.617Z,804
2017-01-16T11:14:42.685Z,796
2017-01-16T11:15:42.735Z,724
2017-01-16T11:16:42.790Z,664
2017-01-16T11:17:42.839Z,644
2017-01-16T11:18:42.904Z,736
2017-01-16T11:19:42.955Z,664
2017-01-16T11:20:43.013Z,604
2017-01-16T11:21:43.076Z,580
2017-01-16T11:22:43.129Z,592
2017-01-16T11:23:43.188Z,656
2017-01-16T11:24:43.244Z,800
2017-01-16T11:25:43.296Z,1328
2017-01-16T11:26:43.377Z,1652
2017-01-16T11:27:43.405Z,1124
2017-01-16T11:28:43.453Z,864
2017-01-16T11:29:43.510Z,768
2017-01-16T11:30:43.572Z,808
2017-01-16T11:31:43.616Z,872
2017-01-16T11:32:43.680Z,1084
2017-01-16T11:33:43.742Z,828
2017-01-16T11:34:43.791Z,768
2017-01-16T11:35:43.848Z,692
2017-01-16T11:36:43.909Z,612
2017-01-16T11:37:43.986Z,540
2017-01-16T11:38:44.022Z,540
2017-01-16T11:39:44.072Z,660
2017-01-16T11:40:44.124Z,660
2017-01-16T11:41:44.180Z,600
2017-01-16T11:42:44.255Z,556
2017-01-16T11:43:44.289Z,540
2017-01-16T11:44:44.348Z,608
2017-01-16T11:45:44.401Z,640
2017-01-16T11:46:44.457Z,668
2017-01-16T11:47:44.511Z,736
2017-01-16T11:48:44.576Z,704
2017-01-16T11:49:44.628Z,836
2017-01-16T11:50:44.684Z,1120
2017-01-16T11:51:44.733Z,1044
2017-01-16T11:52:44.784Z,936
2017-01-16T11:53:44.854Z,868
2017-01-16T11:54:44.904Z,796
2017-01-16T11:55:44.959Z,720
2017-01-16T11:56:45.026Z,776
2017-01-16T11:57:45.085Z,992
2017-01-16T11:58:45.118Z,888
2017-01-16T11:59:45.187Z,1500
2017-01-16T12:00:45.242Z,1352
2017-01-16T12:01:45.289Z,1200
2017-01-16T12:02:45.341Z,1136
2017-01-16T12:03:45.404Z,1244
2017-01-16T12:04:45.463Z,1140
2017-01-16T12:05:45.512Z,988
2017-01-16T12:06:45.568Z,1060
2017-01-16T12:07:45.615Z,992
2017-01-16T12:08:45.681Z,1000
2017-01-16T12:09:45.742Z,1332
2017-01-16T12:10:45.796Z,1076
2017-01-16T12:11:45.839Z,1104
2017-01-16T12:12:45.904Z,904
2017-01-16T12:13:45.953Z,768
2017-01-16T12:14:46.009Z,1428
2017-01-16T12:15:46.064Z,1128
2017-01-16T12:16:46.118Z,908
2017-01-16T12:17:46.175Z,804
2017-01-16T12:18:46.229Z,640
2017-01-16T12:19:46.287Z,712
2017-01-16T12:20:46.339Z,848
2017-01-16T12:21:46.397Z,772
2017-01-16T12:22:46.457Z,736
2017-01-16T12:23:46.515Z,676
2017-01-16T12:24:46.561Z,608
2017-01-16T12:25:46.628Z,628
2017-01-16T12:26:46.668Z,664
2017-01-16T12:27:46.721Z,652
2017-01-16T12:28:46.786Z,640
2017-01-16T12:29:46.839Z,636
2017-01-16T12:30:46.899Z,712
2017-01-16T12:31:46.958Z,776
2017-01-16T12:32:47.011Z,676
2017-01-16T12:33:47.067Z,560
2017-01-16T12:34:47.113Z,492
2017-01-16T12:35:47.163Z,472
2017-01-16T12:36:47.227Z,488
2017-01-16T12:37:47.286Z,500
2017-01-16T12:38:47.341Z,488
2017-01-16T12:39:47.399Z,464
2017-01-16T12:40:47.453Z,416
2017-01-16T12:41:47.505Z,368
2017-01-16T12:42:47.560Z,328
2017-01-16T12:43:47.611Z,320
2017-01-16T12:44:47.701Z,328
2017-01-16T12:45:47.735Z,336
2017-01-16T12:46:47.785Z,340
2017-01-16T12:47:47.842Z,332
2017-01-16T12:48:47.885Z,320
2017-01-16T12:49:47.947Z,304
2017-01-16T12:50:47.992Z,320
2017-01-16T12:51:48.053Z,348
2017-01-16T12:52:48.106Z,360
2017-01-16T12:53:48.171Z,360
2017-01-16T12:54:48.220Z,340
2017-01-16T12:55:48.279Z,316
2017-01-16T12:56:48.334Z,288
2017-01-16T12:57:48.397Z,268
2017-01-16T12:58:48.441Z,264
2017-01-16T12:59:48.501Z,272
2017-01-16T13:00:48.561Z,272
2017-01-16T13:01:48.997Z,292
2017-01-16T13:02:48.668Z,328
2017-01-16T13:03:48.721Z,356
2017-01-16T13:04:48.774Z,376
2017-01-16T13:05:48.829Z,376
2017-01-16T13:06:48.887Z,376
2017-01-16T13:07:48.940Z,372
2017-01-16T13:08:48.992Z,360
2017-01-16T13:09:49.042Z,344
2017-01-16T13:10:49.114Z,340
2017-01-16T13:11:49.156Z,324
2017-01-16T13:12:49.215Z,320
2017-01-16T13:13:49.265Z,328
2017-01-16T13:14:49.320Z,348
2017-01-16T13:15:49.386Z,364
2017-01-16T13:16:49.448Z,376
2017-01-16T13:17:49.500Z,376
2017-01-16T13:18:49.552Z,376
2017-01-16T13:19:49.598Z,364
2017-01-16T13:20:49.665Z,360
2017-01-16T13:21:49.711Z,364
2017-01-16T13:22:49.775Z,356
2017-01-16T13:23:49.834Z,336
2017-01-16T13:24:49.886Z,312
2017-01-16T13:25:49.935Z,304
2017-01-16T13:26:50.000Z,304
2017-01-16T13:27:50.054Z,320
2017-01-16T13:28:50.100Z,336
2017-01-16T13:29:50.165Z,324
2017-01-16T13:30:50.217Z,312
2017-01-16T13:31:50.285Z,308
2017-01-16T13:32:50.728Z,336
2017-01-16T13:33:50.383Z,400
2017-01-16T13:34:50.444Z,384
2017-01-16T13:35:50.509Z,376
2017-01-16T13:36:50.547Z,352
2017-01-16T13:37:50.611Z,372
2017-01-16T13:38:50.660Z,356
2017-01-16T13:39:50.721Z,340
2017-01-16T13:40:50.773Z,328
2017-01-16T13:41:50.834Z,372
2017-01-16T13:42:50.895Z,452
2017-01-16T13:43:50.951Z,376
2017-01-16T13:44:51.008Z,332
2017-01-16T13:45:51.050Z,836
2017-01-16T13:46:51.110Z,832
2017-01-16T13:47:51.162Z,944
2017-01-16T13:48:51.217Z,940
2017-01-16T13:49:51.277Z,856
2017-01-16T13:50:51.335Z,904
2017-01-16T13:51:51.381Z,1020
2017-01-16T13:52:51.447Z,1076
2017-01-16T13:53:51.506Z,1024
2017-01-16T13:54:51.559Z,916
2017-01-16T13:55:51.603Z,840
2017-01-16T13:56:51.663Z,788
2017-01-16T13:57:51.717Z,808
2017-01-16T13:58:51.776Z,820
2017-01-16T13:59:51.839Z,868
2017-01-16T14:00:51.890Z,844
2017-01-16T14:01:51.955Z,820
2017-01-16T14:02:52.002Z,828
2017-01-16T14:03:52.059Z,832
2017-01-16T14:04:52.107Z,816
2017-01-16T14:05:52.169Z,804
2017-01-16T14:06:52.225Z,724
2017-01-16T14:07:52.285Z,692
2017-01-16T14:08:52.341Z,720
2017-01-16T14:09:52.389Z,732
2017-01-16T14:10:52.447Z,736
2017-01-16T14:11:52.507Z,704
2017-01-16T14:12:52.562Z,696
2017-01-16T14:13:52.625Z,732